PWSweather.com
Personal Weather Stations
Station Observations
KOHAVON11
Long Road Station, Avon, OH 44011

Long Road StationAvon, OH 44011

Lat: 41.437, Lon: -82.0477

Elevation: 686

Station Type: Davis Vantage Pro2

http://www.avon-weather.com

Latest ConditionsUpdated 10:08:26 AM EST Friday, Feb 24, 2017
Currently Today's Max Today's Min Today's Average
Temperature 65.9°F18.8°C 65.9°F18.8°C 41.4°F5.2°C 50.0°F10.0°C
Dew Point 55.6°F13.1°C 55.6°F13.1°C 38.1°F3.4°C 45.7°F7.6°C
Winds 12.0 mph SW19.3 kmh SW 20.0 mph S32.2 kmh S - 3.9 mph 6.3 kmh
Wind Gusts 26.0 mph41.8 kmh 26.0 mph41.8 kmh - -
Humidity 70% 90% 70% 85%
Pressure 29.63 in1003.4 mb 29.75 in1007.5 mb 29.63 in1003.4 mb -
Hour Temp Dew Point Humidity Winds Wind Gusts Pressure Precip Precip Rate Daily Precip Total
10:08 AM 65.9°F18.8°C 55.6°F13.1°C 70% 12.0 mph SW19.3 kmh SW 26.0 mph41.8 kmh 29.63 in1003.4 mb 0.00 in0.0 mm 0.00 in0.0 mm 0.04 in1.0 mm
10:03 AM 65.3°F18.5°C 55.4°F13.0°C 71% 19.0 mph WSW30.6 kmh WSW 26.0 mph41.8 kmh 29.64 in1003.7 mb 0.00 in0.0 mm 0.00 in0.0 mm 0.04 in1.0 mm
09:58 AM 64.9°F18.3°C 55.1°F12.8°C 71% 18.0 mph S29.0 kmh S 24.0 mph38.6 kmh 29.64 in1003.7 mb 0.00 in0.0 mm 0.00 in0.0 mm 0.04 in1.0 mm
09:53 AM 64.7°F18.2°C 55.3°F12.9°C 72% 13.0 mph SSW20.9 kmh SSW 24.0 mph38.6 kmh 29.64 in1003.7 mb 0.00 in0.0 mm 0.00 in0.0 mm 0.04 in1.0 mm
09:48 AM 64.3°F17.9°C 55.3°F12.9°C 73% 20.0 mph S32.2 kmh S 24.0 mph38.6 kmh 29.64 in1003.7 mb 0.00 in0.0 mm 0.00 in0.0 mm 0.04 in1.0 mm
09:43 AM 64.2°F17.9°C 55.6°F13.1°C 74% 14.0 mph S22.5 kmh S 24.0 mph38.6 kmh 29.64 in1003.7 mb 0.00 in0.0 mm 0.00 in0.0 mm 0.04 in1.0 mm
09:38 AM 63.9°F17.7°C 55.3°F12.9°C 74% 12.0 mph S19.3 kmh S 23.0 mph37.0 kmh 29.64 in1003.7 mb 0.00 in0.0 mm 0.00 in0.0 mm 0.04 in1.0 mm
09:33 AM 63.6°F17.6°C 55.0°F12.8°C 74% 16.0 mph S25.7 kmh S 23.0 mph37.0 kmh 29.64 in1003.7 mb 0.00 in0.0 mm 0.00 in0.0 mm 0.04 in1.0 mm
09:28 AM 63.3°F17.4°C 54.7°F12.6°C 74% 16.0 mph SW25.7 kmh SW 23.0 mph37.0 kmh 29.65 in1004.1 mb 0.00 in0.0 mm 0.00 in0.0 mm 0.04 in1.0 mm
09:23 AM 63.5°F17.5°C 54.9°F12.7°C 74% 10.0 mph SW16.1 kmh SW 23.0 mph37.0 kmh 29.65 in1004.1 mb 0.00 in0.0 mm 0.00 in0.0 mm 0.04 in1.0 mm
09:18 AM 63.5°F17.5°C 54.5°F12.5°C 73% 9.0 mph SW14.5 kmh SW 26.0 mph41.8 kmh 29.65 in1004.1 mb 0.00 in0.0 mm 0.00 in0.0 mm 0.04 in1.0 mm
09:13 AM 63.5°F17.5°C 54.9°F12.7°C 74% 9.0 mph SSW14.5 kmh SSW 26.0 mph41.8 kmh 29.65 in1004.1 mb 0.00 in0.0 mm 0.00 in0.0 mm 0.04 in1.0 mm
09:08 AM 63.2°F17.3°C 55.0°F12.8°C 75% 17.0 mph S27.4 kmh S 26.0 mph41.8 kmh 29.65 in1004.1 mb 0.00 in0.0 mm 0.00 in0.0 mm 0.04 in1.0 mm
09:03 AM 63.1°F17.3°C 54.9°F12.7°C 75% 13.0 mph S20.9 kmh S 26.0 mph41.8 kmh 29.65 in1004.1 mb 0.00 in0.0 mm 0.00 in0.0 mm 0.04 in1.0 mm
08:58 AM 62.8°F17.1°C 55.0°F12.8°C 76% 14.0 mph S22.5 kmh S 24.0 mph38.6 kmh 29.65 in1004.1 mb 0.00 in0.0 mm 0.00 in0.0 mm 0.04 in1.0 mm
08:53 AM 62.6°F17.0°C 54.8°F12.7°C 76% 12.0 mph SSW19.3 kmh SSW 24.0 mph38.6 kmh 29.64 in1003.7 mb 0.00 in0.0 mm 0.00 in0.0 mm 0.04 in1.0 mm
08:48 AM 62.3°F16.8°C 54.8°F12.7°C 77% 8.0 mph S12.9 kmh S 26.0 mph41.8 kmh 29.64 in1003.7 mb 0.00 in0.0 mm 0.00 in0.0 mm 0.04 in1.0 mm
08:43 AM 62.0°F16.7°C 54.9°F12.7°C 78% 15.0 mph S24.1 kmh S 26.0 mph41.8 kmh 29.64 in1003.7 mb 0.00 in0.0 mm 0.00 in0.0 mm 0.04 in1.0 mm
08:38 AM 61.7°F16.5°C 55.0°F12.8°C 79% 8.0 mph S12.9 kmh S 26.0 mph41.8 kmh 29.64 in1003.7 mb 0.00 in0.0 mm 0.00 in0.0 mm 0.04 in1.0 mm
08:33 AM 61.3°F16.3°C 54.6°F12.6°C 79% 16.0 mph SSW25.7 kmh SSW 26.0 mph41.8 kmh 29.64 in1003.7 mb 0.00 in0.0 mm 0.00 in0.0 mm 0.04 in1.0 mm
08:28 AM 61.0°F16.1°C 54.7°F12.6°C 80% 14.0 mph SSW22.5 kmh SSW 22.0 mph35.4 kmh 29.65 in1004.1 mb 0.00 in0.0 mm 0.00 in0.0 mm 0.04 in1.0 mm
08:23 AM 60.6°F15.9°C 54.6°F12.6°C 81% 14.0 mph S22.5 kmh S 22.0 mph35.4 kmh 29.65 in1004.1 mb 0.00 in0.0 mm 0.00 in0.0 mm 0.04 in1.0 mm
08:18 AM 60.4°F15.8°C 54.4°F12.4°C 81% 15.0 mph S24.1 kmh S 20.0 mph32.2 kmh 29.65 in1004.1 mb 0.00 in0.0 mm 0.00 in0.0 mm 0.04 in1.0 mm
08:13 AM 60.0°F15.6°C 54.4°F12.4°C 82% 9.0 mph S14.5 kmh S 20.0 mph32.2 kmh 29.65 in1004.1 mb 0.00 in0.0 mm 0.00 in0.0 mm 0.04 in1.0 mm
08:08 AM 59.6°F15.3°C 54.7°F12.6°C 84% 8.0 mph S12.9 kmh S 18.0 mph29.0 kmh 29.65 in1004.1 mb 0.00 in0.0 mm 0.00 in0.0 mm 0.04 in1.0 mm
08:03 AM 58.7°F14.8°C 54.1°F12.3°C 85% 3.0 mph S4.8 kmh S 11.0 mph17.7 kmh 29.65 in1004.1 mb 0.00 in0.0 mm 0.00 in0.0 mm 0.04 in1.0 mm
07:58 AM 58.2°F14.6°C 54.0°F12.2°C 86% 5.0 mph S8.0 kmh S 10.0 mph16.1 kmh 29.65 in1004.1 mb 0.00 in0.0 mm 0.00 in0.0 mm 0.04 in1.0 mm
07:53 AM 57.9°F14.4°C 54.0°F12.2°C 87% 6.0 mph S9.7 kmh S 12.0 mph19.3 kmh 29.65 in1004.1 mb 0.00 in0.0 mm 0.00 in0.0 mm 0.04 in1.0 mm
07:48 AM 57.6°F14.2°C 53.7°F12.1°C 87% 5.0 mph S8.0 kmh S 12.0 mph19.3 kmh 29.66 in1004.4 mb 0.00 in0.0 mm 0.00 in0.0 mm 0.04 in1.0 mm
07:43 AM 57.4°F14.1°C 53.8°F12.1°C 88% 5.0 mph SE8.0 kmh SE 12.0 mph19.3 kmh 29.66 in1004.4 mb 0.00 in0.0 mm 0.00 in0.0 mm 0.04 in1.0 mm
07:38 AM 57.2°F14.0°C 53.6°F12.0°C 88% Calm Calm 12.0 mph19.3 kmh 29.65 in1004.1 mb 0.00 in0.0 mm 0.00 in0.0 mm 0.04 in1.0 mm
07:33 AM 57.0°F13.9°C 53.8°F12.1°C 89% 6.0 mph SSE9.7 kmh SSE 12.0 mph19.3 kmh 29.66 in1004.4 mb 0.00 in0.0 mm 0.00 in0.0 mm 0.04 in1.0 mm
07:28 AM 56.9°F13.8°C 53.7°F12.1°C 89% 3.0 mph S4.8 kmh S 12.0 mph19.3 kmh 29.66 in1004.4 mb 0.00 in0.0 mm 0.00 in0.0 mm 0.04 in1.0 mm
07:23 AM 56.7°F13.7°C 53.5°F11.9°C 89% Calm Calm 14.0 mph22.5 kmh 29.66 in1004.4 mb 0.00 in0.0 mm 0.00 in0.0 mm 0.04 in1.0 mm
07:18 AM 56.5°F13.6°C 53.3°F11.8°C 89% 1.0 mph S1.6 kmh S 14.0 mph22.5 kmh 29.66 in1004.4 mb 0.00 in0.0 mm 0.00 in0.0 mm 0.04 in1.0 mm
07:13 AM 56.2°F13.4°C 53.0°F11.7°C 89% 6.0 mph S9.7 kmh S 16.0 mph25.7 kmh 29.66 in1004.4 mb 0.00 in0.0 mm 0.00 in0.0 mm 0.04 in1.0 mm
07:08 AM 56.0°F13.3°C 53.1°F11.7°C 90% 8.0 mph SE12.9 kmh SE 16.0 mph25.7 kmh 29.66 in1004.4 mb 0.00 in0.0 mm 0.00 in0.0 mm 0.04 in1.0 mm
07:03 AM 55.8°F13.2°C 52.9°F11.6°C 90% 2.0 mph S3.2 kmh S 16.0 mph25.7 kmh 29.66 in1004.4 mb 0.00 in0.0 mm 0.00 in0.0 mm 0.04 in1.0 mm
06:58 AM 55.7°F13.2°C 52.8°F11.6°C 90% 1.0 mph S1.6 kmh S 16.0 mph25.7 kmh 29.67 in1004.7 mb 0.00 in0.0 mm 0.00 in0.0 mm 0.04 in1.0 mm
06:53 AM 55.5°F13.1°C 52.6°F11.4°C 90% 6.0 mph S9.7 kmh S 16.0 mph25.7 kmh 29.67 in1004.7 mb 0.00 in0.0 mm 0.00 in0.0 mm 0.04 in1.0 mm
06:48 AM 55.3°F12.9°C 52.4°F11.3°C 90% 9.0 mph S14.5 kmh S 16.0 mph25.7 kmh 29.67 in1004.7 mb 0.00 in0.0 mm 0.00 in0.0 mm 0.04 in1.0 mm
06:43 AM 55.1°F12.8°C 52.2°F11.2°C 90% 6.0 mph S9.7 kmh S 13.0 mph20.9 kmh 29.67 in1004.7 mb 0.00 in0.0 mm 0.00 in0.0 mm 0.04 in1.0 mm
06:38 AM 54.6°F12.6°C 51.7°F10.9°C 90% 7.0 mph S11.3 kmh S 11.0 mph17.7 kmh 29.67 in1004.7 mb 0.00 in0.0 mm 0.00 in0.0 mm 0.04 in1.0 mm
06:33 AM 54.0°F12.2°C 51.1°F10.6°C 90% 3.0 mph S4.8 kmh S 11.0 mph17.7 kmh 29.67 in1004.7 mb 0.00 in0.0 mm 0.00 in0.0 mm 0.04 in1.0 mm
06:28 AM 53.0°F11.7°C 50.1°F10.1°C 90% 3.0 mph S4.8 kmh S 10.0 mph16.1 kmh 29.67 in1004.7 mb 0.00 in0.0 mm 0.00 in0.0 mm 0.04 in1.0 mm
06:23 AM 52.2°F11.2°C 49.0°F9.4°C 89% 6.0 mph SSW9.7 kmh SSW 6.0 mph9.7 kmh 29.67 in1004.7 mb 0.00 in0.0 mm 0.00 in0.0 mm 0.04 in1.0 mm
06:18 AM 51.2°F10.7°C 48.4°F9.1°C 90% 2.0 mph S3.2 kmh S 6.0 mph9.7 kmh 29.67 in1004.7 mb 0.00 in0.0 mm 0.00 in0.0 mm 0.04 in1.0 mm
06:13 AM 49.4°F9.7°C 46.3°F7.9°C 89% 4.0 mph SSW6.4 kmh SSW 5.0 mph8.0 kmh 29.68 in1005.1 mb 0.00 in0.0 mm 0.00 in0.0 mm 0.04 in1.0 mm
06:08 AM 47.2°F8.4°C 44.4°F6.9°C 90% Calm Calm 3.0 mph4.8 kmh 29.68 in1005.1 mb 0.00 in0.0 mm 0.00 in0.0 mm 0.04 in1.0 mm
06:03 AM 45.0°F7.2°C 42.3°F5.7°C 90% Calm Calm 3.0 mph4.8 kmh 29.68 in1005.1 mb 0.00 in0.0 mm 0.00 in0.0 mm 0.04 in1.0 mm
05:58 AM 43.6°F6.4°C 40.6°F4.8°C 89% Calm Calm 3.0 mph4.8 kmh 29.68 in1005.1 mb 0.00 in0.0 mm 0.00 in0.0 mm 0.04 in1.0 mm
05:53 AM 43.1°F6.2°C 40.1°F4.5°C 89% 1.0 mph S1.6 kmh S 1.0 mph1.6 kmh 29.68 in1005.1 mb 0.00 in0.0 mm 0.00 in0.0 mm 0.04 in1.0 mm
05:48 AM 42.8°F6.0°C 39.8°F4.3°C 89% Calm Calm -- 29.68 in1005.1 mb 0.00 in0.0 mm 0.00 in0.0 mm 0.04 in1.0 mm
05:43 AM 42.6°F5.9°C 39.6°F4.2°C 89% Calm Calm -- 29.68 in1005.1 mb 0.00 in0.0 mm 0.00 in0.0 mm 0.04 in1.0 mm
05:38 AM 42.5°F5.8°C 39.5°F4.2°C 89% Calm Calm -- 29.69 in1005.4 mb 0.00 in0.0 mm 0.00 in0.0 mm 0.04 in1.0 mm
05:33 AM 42.4°F5.8°C 39.4°F4.1°C 89% Calm Calm -- 29.69 in1005.4 mb 0.00 in0.0 mm 0.00 in0.0 mm 0.04 in1.0 mm
05:28 AM 42.3°F5.7°C 39.3°F4.1°C 89% Calm Calm -- 29.69 in1005.4 mb 0.00 in0.0 mm 0.00 in0.0 mm 0.04 in1.0 mm
05:23 AM 42.3°F5.7°C 39.3°F4.1°C 89% Calm Calm -- 29.69 in1005.4 mb 0.00 in0.0 mm 0.00 in0.0 mm 0.04 in1.0 mm
05:18 AM 42.2°F5.7°C 39.2°F4.0°C 89% Calm Calm -- 29.69 in1005.4 mb 0.00 in0.0 mm 0.00 in0.0 mm 0.04 in1.0 mm
05:13 AM 42.2°F5.7°C 39.2°F4.0°C 89% Calm Calm -- 29.69 in1005.4 mb 0.00 in0.0 mm 0.00 in0.0 mm 0.04 in1.0 mm
05:08 AM 42.1°F5.6°C 39.1°F3.9°C 89% Calm Calm -- 29.69 in1005.4 mb 0.00 in0.0 mm 0.00 in0.0 mm 0.04 in1.0 mm
05:03 AM 42.0°F5.6°C 39.0°F3.9°C 89% Calm Calm -- 29.69 in1005.4 mb 0.00 in0.0 mm 0.00 in0.0 mm 0.04 in1.0 mm
04:58 AM 41.9°F5.5°C 38.9°F3.8°C 89% Calm Calm -- 29.70 in1005.8 mb 0.00 in0.0 mm 0.00 in0.0 mm 0.04 in1.0 mm
04:53 AM 41.9°F5.5°C 38.6°F3.7°C 88% Calm Calm -- 29.70 in1005.8 mb 0.00 in0.0 mm 0.00 in0.0 mm 0.04 in1.0 mm
04:48 AM 41.8°F5.4°C 38.5°F3.6°C 88% Calm Calm -- 29.70 in1005.8 mb 0.00 in0.0 mm 0.00 in0.0 mm 0.04 in1.0 mm
04:43 AM 41.8°F5.4°C 38.5°F3.6°C 88% Calm Calm -- 29.70 in1005.8 mb 0.00 in0.0 mm 0.00 in0.0 mm 0.04 in1.0 mm
04:38 AM 41.8°F5.4°C 38.5°F3.6°C 88% Calm Calm -- 29.70 in1005.8 mb 0.00 in0.0 mm 0.00 in0.0 mm 0.04 in1.0 mm
04:33 AM 41.7°F5.4°C 38.4°F3.6°C 88% Calm Calm -- 29.70 in1005.8 mb 0.00 in0.0 mm 0.00 in0.0 mm 0.04 in1.0 mm
04:28 AM 41.7°F5.4°C 38.4°F3.6°C 88% Calm Calm -- 29.70 in1005.8 mb 0.00 in0.0 mm 0.00 in0.0 mm 0.04 in1.0 mm
04:23 AM 41.6°F5.3°C 38.3°F3.5°C 88% Calm Calm 2.0 mph3.2 kmh 29.70 in1005.8 mb 0.00 in0.0 mm 0.00 in0.0 mm 0.04 in1.0 mm
04:18 AM 41.6°F5.3°C 38.3°F3.5°C 88% 1.0 mph E1.6 kmh E 1.0 mph1.6 kmh 29.70 in1005.8 mb 0.00 in0.0 mm 0.00 in0.0 mm 0.04 in1.0 mm
04:13 AM 41.5°F5.3°C 38.2°F3.4°C 88% Calm Calm 4.0 mph6.4 kmh 29.70 in1005.8 mb 0.00 in0.0 mm 0.00 in0.0 mm 0.04 in1.0 mm
04:08 AM 41.4°F5.2°C 38.1°F3.4°C 88% 1.0 mph NE1.6 kmh NE 3.0 mph4.8 kmh 29.71 in1006.1 mb 0.00 in0.0 mm 0.00 in0.0 mm 0.04 in1.0 mm
04:03 AM 41.4°F5.2°C 38.1°F3.4°C 88% 3.0 mph SE4.8 kmh SE 3.0 mph4.8 kmh 29.71 in1006.1 mb 0.00 in0.0 mm 0.00 in0.0 mm 0.04 in1.0 mm
03:58 AM 41.5°F5.3°C 38.2°F3.4°C 88% Calm Calm 3.0 mph4.8 kmh 29.72 in1006.4 mb 0.00 in0.0 mm 0.00 in0.0 mm 0.04 in1.0 mm
03:53 AM 41.7°F5.4°C 38.4°F3.6°C 88% Calm Calm 3.0 mph4.8 kmh 29.72 in1006.4 mb 0.00 in0.0 mm 0.00 in0.0 mm 0.04 in1.0 mm
03:48 AM 41.8°F5.4°C 38.5°F3.6°C 88% 4.0 mph NE6.4 kmh NE 4.0 mph6.4 kmh 29.72 in1006.4 mb 0.00 in0.0 mm 0.00 in0.0 mm 0.04 in1.0 mm
03:43 AM 41.9°F5.5°C 38.6°F3.7°C 88% Calm Calm -- 29.72 in1006.4 mb 0.00 in0.0 mm 0.00 in0.0 mm 0.04 in1.0 mm
03:38 AM 42.1°F5.6°C 38.5°F3.6°C 87% Calm Calm 5.0 mph8.0 kmh 29.72 in1006.4 mb 0.00 in0.0 mm 0.00 in0.0 mm 0.04 in1.0 mm
03:33 AM 42.4°F5.8°C 39.1°F3.9°C 88% 2.0 mph NE3.2 kmh NE 5.0 mph8.0 kmh 29.72 in1006.4 mb 0.00 in0.0 mm 0.00 in0.0 mm 0.04 in1.0 mm
03:28 AM 42.6°F5.9°C 39.3°F4.1°C 88% 4.0 mph ENE6.4 kmh ENE 4.0 mph6.4 kmh 29.72 in1006.4 mb 0.00 in0.0 mm 0.00 in0.0 mm 0.04 in1.0 mm
03:23 AM 42.8°F6.0°C 39.2°F4.0°C 87% 2.0 mph NE3.2 kmh NE 3.0 mph4.8 kmh 29.72 in1006.4 mb 0.00 in0.0 mm 0.00 in0.0 mm 0.04 in1.0 mm
03:18 AM 43.1°F6.2°C 39.8°F4.3°C 88% Calm Calm 5.0 mph8.0 kmh 29.72 in1006.4 mb 0.00 in0.0 mm 0.00 in0.0 mm 0.04 in1.0 mm
03:13 AM 43.3°F6.3°C 40.0°F4.4°C 88% 3.0 mph NE4.8 kmh NE 5.0 mph8.0 kmh 29.72 in1006.4 mb 0.00 in0.0 mm 0.00 in0.0 mm 0.04 in1.0 mm
03:08 AM 43.5°F6.4°C 40.2°F4.6°C 88% 1.0 mph E1.6 kmh E 5.0 mph8.0 kmh 29.72 in1006.4 mb 0.00 in0.0 mm 0.00 in0.0 mm 0.04 in1.0 mm
03:03 AM 43.6°F6.4°C 40.3°F4.6°C 88% 4.0 mph NE6.4 kmh NE 5.0 mph8.0 kmh 29.72 in1006.4 mb 0.00 in0.0 mm 0.00 in0.0 mm 0.04 in1.0 mm
02:58 AM 43.7°F6.5°C 40.4°F4.7°C 88% Calm Calm 1.0 mph1.6 kmh 29.72 in1006.4 mb 0.00 in0.0 mm 0.00 in0.0 mm 0.04 in1.0 mm
02:53 AM 43.7°F6.5°C 40.4°F4.7°C 88% Calm Calm -- 29.72 in1006.4 mb 0.00 in0.0 mm 0.00 in0.0 mm 0.04 in1.0 mm
02:48 AM 43.7°F6.5°C 40.4°F4.7°C 88% Calm Calm 5.0 mph8.0 kmh 29.73 in1006.8 mb 0.00 in0.0 mm 0.00 in0.0 mm 0.04 in1.0 mm
02:43 AM 43.8°F6.6°C 40.5°F4.7°C 88% Calm Calm 3.0 mph4.8 kmh 29.73 in1006.8 mb 0.00 in0.0 mm 0.00 in0.0 mm 0.04 in1.0 mm
02:38 AM 43.9°F6.6°C 40.6°F4.8°C 88% 3.0 mph NE4.8 kmh NE 3.0 mph4.8 kmh 29.73 in1006.8 mb 0.00 in0.0 mm 0.00 in0.0 mm 0.04 in1.0 mm
02:33 AM 44.0°F6.7°C 40.7°F4.8°C 88% 1.0 mph NE1.6 kmh NE 2.0 mph3.2 kmh 29.73 in1006.8 mb 0.00 in0.0 mm 0.00 in0.0 mm 0.04 in1.0 mm
02:28 AM 44.0°F6.7°C 40.7°F4.8°C 88% Calm Calm 5.0 mph8.0 kmh 29.74 in1007.1 mb 0.00 in0.0 mm 0.00 in0.0 mm 0.04 in1.0 mm
02:23 AM 44.0°F6.7°C 40.7°F4.8°C 88% 3.0 mph NE4.8 kmh NE 5.0 mph8.0 kmh 29.74 in1007.1 mb 0.00 in0.0 mm 0.00 in0.0 mm 0.04 in1.0 mm
02:18 AM 44.0°F6.7°C 40.4°F4.7°C 87% 1.0 mph SE1.6 kmh SE 1.0 mph1.6 kmh 29.73 in1006.8 mb 0.00 in0.0 mm 0.00 in0.0 mm 0.04 in1.0 mm
02:13 AM 44.0°F6.7°C 40.4°F4.7°C 87% Calm Calm -- 29.73 in1006.8 mb 0.00 in0.0 mm 0.00 in0.0 mm 0.04 in1.0 mm
02:08 AM 44.1°F6.7°C 40.5°F4.7°C 87% Calm Calm 1.0 mph1.6 kmh 29.73 in1006.8 mb 0.00 in0.0 mm 0.00 in0.0 mm 0.04 in1.0 mm
02:03 AM 44.1°F6.7°C 40.5°F4.7°C 87% Calm Calm -- 29.73 in1006.8 mb 0.00 in0.0 mm 0.00 in0.0 mm 0.04 in1.0 mm
01:58 AM 44.1°F6.7°C 40.5°F4.7°C 87% Calm Calm 1.0 mph1.6 kmh 29.74 in1007.1 mb 0.00 in0.0 mm 0.00 in0.0 mm 0.04 in1.0 mm
01:53 AM 44.2°F6.8°C 40.6°F4.8°C 87% Calm Calm -- 29.74 in1007.1 mb 0.00 in0.0 mm 0.00 in0.0 mm 0.04 in1.0 mm
01:48 AM 44.3°F6.8°C 40.7°F4.8°C 87% Calm Calm -- 29.73 in1006.8 mb 0.00 in0.0 mm 0.00 in0.0 mm 0.04 in1.0 mm
01:43 AM 44.4°F6.9°C 40.8°F4.9°C 87% Calm Calm 1.0 mph1.6 kmh 29.73 in1006.8 mb 0.00 in0.0 mm 0.00 in0.0 mm 0.04 in1.0 mm
01:38 AM 44.5°F6.9°C 40.9°F4.9°C 87% Calm Calm -- 29.74 in1007.1 mb 0.00 in0.0 mm 0.00 in0.0 mm 0.04 in1.0 mm
01:33 AM 44.7°F7.1°C 41.1°F5.1°C 87% Calm Calm -- 29.74 in1007.1 mb 0.00 in0.0 mm 0.00 in0.0 mm 0.04 in1.0 mm
01:28 AM 44.8°F7.1°C 41.2°F5.1°C 87% Calm Calm 2.0 mph3.2 kmh 29.74 in1007.1 mb 0.00 in0.0 mm 0.00 in0.0 mm 0.04 in1.0 mm
01:23 AM 44.9°F7.2°C 41.0°F5.0°C 86% Calm Calm 1.0 mph1.6 kmh 29.74 in1007.1 mb 0.00 in0.0 mm 0.00 in0.0 mm 0.04 in1.0 mm
01:18 AM 45.3°F7.4°C 41.3°F5.2°C 86% Calm Calm -- 29.74 in1007.1 mb 0.00 in0.0 mm 0.00 in0.0 mm 0.04 in1.0 mm
01:13 AM 45.6°F7.6°C 41.6°F5.3°C 86% 2.0 mph N3.2 kmh N 3.0 mph4.8 kmh 29.74 in1007.1 mb 0.00 in0.0 mm 0.00 in0.0 mm 0.04 in1.0 mm
01:08 AM 45.9°F7.7°C 41.9°F5.5°C 86% 1.0 mph ENE1.6 kmh ENE 1.0 mph1.6 kmh 29.75 in1007.5 mb 0.00 in0.0 mm 0.00 in0.0 mm 0.04 in1.0 mm
01:03 AM 46.2°F7.9°C 42.2°F5.7°C 86% 1.0 mph E1.6 kmh E 4.0 mph6.4 kmh 29.74 in1007.1 mb 0.00 in0.0 mm 0.00 in0.0 mm 0.04 in1.0 mm
12:58 AM 46.5°F8.1°C 42.5°F5.8°C 86% 1.0 mph ENE1.6 kmh ENE 4.0 mph6.4 kmh 29.74 in1007.1 mb 0.00 in0.0 mm 0.00 in0.0 mm 0.04 in1.0 mm
12:53 AM 46.9°F8.3°C 42.9°F6.1°C 86% Calm Calm 3.0 mph4.8 kmh 29.74 in1007.1 mb 0.00 in0.0 mm 0.00 in0.0 mm 0.04 in1.0 mm
12:48 AM 47.2°F8.4°C 43.2°F6.2°C 86% Calm Calm 2.0 mph3.2 kmh 29.74 in1007.1 mb 0.00 in0.0 mm 0.00 in0.0 mm 0.04 in1.0 mm
12:43 AM 47.4°F8.6°C 43.4°F6.3°C 86% Calm Calm 5.0 mph8.0 kmh 29.75 in1007.5 mb 0.00 in0.0 mm 0.00 in0.0 mm 0.04 in1.0 mm
12:38 AM 47.7°F8.7°C 43.7°F6.5°C 86% Calm Calm 6.0 mph9.7 kmh 29.75 in1007.5 mb 0.00 in0.0 mm 0.00 in0.0 mm 0.04 in1.0 mm
12:33 AM 47.9°F8.8°C 43.9°F6.6°C 86% 3.0 mph NE4.8 kmh NE 6.0 mph9.7 kmh 29.75 in1007.5 mb 0.00 in0.0 mm 0.00 in0.0 mm 0.04 in1.0 mm
12:28 AM 48.1°F8.9°C 44.1°F6.7°C 86% 3.0 mph N4.8 kmh N 6.0 mph9.7 kmh 29.75 in1007.5 mb 0.00 in0.0 mm 0.00 in0.0 mm 0.04 in1.0 mm
12:23 AM 48.3°F9.1°C 44.3°F6.8°C 86% 4.0 mph NE6.4 kmh NE 6.0 mph9.7 kmh 29.75 in1007.5 mb 0.00 in0.0 mm 0.00 in0.0 mm 0.04 in1.0 mm
12:18 AM 48.6°F9.2°C 44.6°F7.0°C 86% 3.0 mph N4.8 kmh N 3.0 mph4.8 kmh 29.75 in1007.5 mb 0.00 in0.0 mm 0.00 in0.0 mm 0.04 in1.0 mm
12:13 AM 48.7°F9.3°C 44.7°F7.1°C 86% 1.0 mph NNE1.6 kmh NNE 2.0 mph3.2 kmh 29.75 in1007.5 mb 0.00 in0.0 mm 0.00 in0.0 mm 0.04 in1.0 mm
12:08 AM 48.8°F9.3°C 44.8°F7.1°C 86% Calm Calm 1.0 mph1.6 kmh 29.75 in1007.5 mb 0.00 in0.0 mm 0.00 in0.0 mm 0.04 in1.0 mm
12:03 AM 48.9°F9.4°C 44.9°F7.2°C 86% Calm Calm 1.0 mph1.6 kmh 29.75 in1007.5 mb 0.04 in1.0 mm 0.80 in20.3 mm 0.04 in1.0 mm